createdAt,value
2018-11-03T00:00:27.089Z,6.50
2018-11-03T00:02:56.154Z,6.40
2018-11-03T00:05:24.965Z,6.30
2018-11-03T00:07:53.778Z,6.30
2018-11-03T00:10:22.648Z,6.20
2018-11-03T00:12:51.372Z,6.20
2018-11-03T00:15:20.172Z,6.40
2018-11-03T00:17:49.074Z,6.30
2018-11-03T00:20:17.919Z,6.20
2018-11-03T00:22:46.698Z,6.10
2018-11-03T00:25:15.405Z,6.00
2018-11-03T00:27:44.554Z,5.90
2018-11-03T00:30:13.886Z,5.90
2018-11-03T00:32:42.657Z,5.80
2018-11-03T00:35:11.850Z,5.80
2018-11-03T00:37:40.576Z,5.80
2018-11-03T00:40:12.156Z,6.00
2018-11-03T00:42:40.886Z,6.10
2018-11-03T00:45:10.627Z,6.20
2018-11-03T00:47:40.256Z,6.00
2018-11-03T00:50:10.371Z,5.90
2018-11-03T00:52:39.107Z,5.90
2018-11-03T00:55:08.470Z,5.80
2018-11-03T00:57:37.645Z,5.90
2018-11-03T01:00:10.201Z,5.90
2018-11-03T01:02:39.630Z,5.90
2018-11-03T01:05:09.099Z,5.90
2018-11-03T01:07:38.834Z,5.70
2018-11-03T01:10:07.652Z,5.70
2018-11-03T01:12:37.563Z,5.60
2018-11-03T01:15:07.751Z,5.60
2018-11-03T01:17:36.556Z,5.60
2018-11-03T01:20:06.210Z,5.60
2018-11-03T01:22:34.997Z,5.50
2018-11-03T01:25:03.806Z,5.60
2018-11-03T01:27:33.738Z,5.50
2018-11-03T01:30:02.530Z,5.60
2018-11-03T01:32:31.419Z,5.60
2018-11-03T01:35:00.105Z,5.60
2018-11-03T01:37:28.858Z,5.60
2018-11-03T01:39:57.977Z,5.60
2018-11-03T01:42:26.881Z,5.60
2018-11-03T01:44:55.658Z,5.60
2018-11-03T01:47:24.430Z,5.70
2018-11-03T01:49:53.741Z,5.70
2018-11-03T01:52:22.528Z,5.90
2018-11-03T01:54:51.282Z,6.00
2018-11-03T01:57:20.100Z,6.20
2018-11-03T01:59:48.992Z,6.20
2018-11-03T02:02:17.874Z,6.20
2018-11-03T02:04:46.735Z,6.20
2018-11-03T02:07:15.535Z,6.30
2018-11-03T02:09:45.367Z,6.30
2018-11-03T02:12:14.156Z,6.40
2018-11-03T02:14:43.037Z,6.30
2018-11-03T02:17:11.907Z,6.30
2018-11-03T02:19:40.678Z,6.30
2018-11-03T02:22:09.812Z,6.30
2018-11-03T02:24:39.563Z,6.30
2018-11-03T02:27:08.318Z,6.30
2018-11-03T02:29:37.071Z,6.20
2018-11-03T02:32:05.962Z,6.30
2018-11-03T02:34:35.397Z,6.30
2018-11-03T02:37:04.176Z,6.30
2018-11-03T02:39:33.005Z,6.30
2018-11-03T02:42:01.873Z,6.30
2018-11-03T02:44:30.687Z,6.30
2018-11-03T02:46:59.773Z,6.40
2018-11-03T02:49:28.661Z,6.40
2018-11-03T02:51:57.562Z,6.40
2018-11-03T02:54:26.360Z,6.30
2018-11-03T02:56:55.109Z,6.30
2018-11-03T02:59:23.881Z,6.30
2018-11-03T03:01:52.685Z,6.30
2018-11-03T03:04:21.502Z,6.20
2018-11-03T03:06:50.309Z,6.20
2018-11-03T03:09:19.146Z,6.20
2018-11-03T03:11:47.982Z,6.20
2018-11-03T03:14:16.719Z,6.20
2018-11-03T03:16:45.468Z,6.20
2018-11-03T03:19:14.343Z,6.10
2018-11-03T03:21:43.216Z,6.20
2018-11-03T03:24:12.098Z,6.10
2018-11-03T03:26:40.933Z,6.10
2018-11-03T03:29:09.937Z,6.10
2018-11-03T03:31:38.622Z,6.10
2018-11-03T03:34:07.431Z,6.10
2018-11-03T03:36:36.307Z,6.10
2018-11-03T03:39:07.892Z,6.10
2018-11-03T03:41:36.769Z,6.10
2018-11-03T03:44:05.621Z,6.10
2018-11-03T03:46:34.656Z,6.20
2018-11-03T03:49:03.550Z,6.20
2018-11-03T03:51:32.268Z,6.10
2018-11-03T03:54:01.935Z,6.10
2018-11-03T03:56:31.298Z,6.10
2018-11-03T03:59:00.246Z,6.10
2018-11-03T04:01:29.144Z,6.10
2018-11-03T04:03:57.896Z,6.00
2018-11-03T04:06:26.604Z,6.00
2018-11-03T04:08:55.800Z,6.00
2018-11-03T04:11:24.510Z,6.00
2018-11-03T04:13:53.378Z,6.00
2018-11-03T04:16:22.354Z,6.00
2018-11-03T04:18:51.273Z,6.00
2018-11-03T04:21:27.986Z,6.00
2018-11-03T04:23:57.384Z,6.00
2018-11-03T04:26:28.096Z,6.00
2018-11-03T04:28:57.754Z,6.00
2018-11-03T04:31:27.159Z,6.00
2018-11-03T04:33:56.025Z,6.00
2018-11-03T04:36:24.856Z,6.00
2018-11-03T04:38:54.093Z,6.00
2018-11-03T04:41:24.588Z,6.00
2018-11-03T04:43:53.267Z,6.00
2018-11-03T04:46:22.768Z,6.00
2018-11-03T04:48:57.818Z,6.00
2018-11-03T04:51:26.664Z,6.00
2018-11-03T04:53:55.541Z,6.00
2018-11-03T04:56:24.516Z,6.00
2018-11-03T04:58:53.352Z,6.00
2018-11-03T05:01:22.318Z,5.90
2018-11-03T05:03:51.144Z,6.00
2018-11-03T05:06:20.701Z,5.90
2018-11-03T05:08:49.604Z,5.90
2018-11-03T05:11:18.531Z,5.90
2018-11-03T05:13:47.354Z,5.90
2018-11-03T05:16:16.263Z,5.90
2018-11-03T05:18:45.937Z,5.90
2018-11-03T05:21:15.475Z,5.90
2018-11-03T05:23:44.262Z,5.90
2018-11-03T05:26:13.202Z,5.90
2018-11-03T05:28:42.024Z,5.90
2018-11-03T05:31:11.051Z,5.90
2018-11-03T05:33:39.818Z,5.90
2018-11-03T05:36:08.755Z,5.90
2018-11-03T05:38:37.696Z,5.90
2018-11-03T05:41:06.659Z,5.90
2018-11-03T05:43:35.937Z,5.90
2018-11-03T05:46:04.779Z,5.90
2018-11-03T05:48:34.537Z,5.90
2018-11-03T05:51:03.358Z,5.80
2018-11-03T05:53:32.199Z,5.80
2018-11-03T05:56:01.055Z,5.80
2018-11-03T05:58:30.183Z,5.80
2018-11-03T06:00:59.971Z,5.80
2018-11-03T06:03:28.907Z,5.80
2018-11-03T06:05:58.346Z,5.80
2018-11-03T06:08:28.042Z,5.80
2018-11-03T06:10:57.091Z,5.80
2018-11-03T06:13:25.890Z,5.80
2018-11-03T06:15:54.787Z,5.80
2018-11-03T06:18:26.651Z,5.80
2018-11-03T06:20:56.337Z,5.80
2018-11-03T06:23:25.577Z,5.80
2018-11-03T06:25:55.153Z,5.80
2018-11-03T06:28:24.130Z,5.80
2018-11-03T06:30:53.076Z,5.80
2018-11-03T06:33:22.406Z,5.80
2018-11-03T06:35:51.752Z,5.80
2018-11-03T06:38:21.709Z,5.80
2018-11-03T06:40:51.081Z,5.80
2018-11-03T06:43:20.228Z,5.90
2018-11-03T06:45:49.476Z,5.90
2018-11-03T06:48:18.967Z,5.90
2018-11-03T06:50:48.276Z,5.90
2018-11-03T06:53:17.514Z,5.90
2018-11-03T06:55:47.178Z,5.90
2018-11-03T06:58:16.418Z,6.00
2018-11-03T07:00:45.721Z,6.00
2018-11-03T07:03:14.869Z,6.10
2018-11-03T07:05:44.308Z,6.10
2018-11-03T07:08:13.672Z,6.10
2018-11-03T07:10:43.723Z,6.10
2018-11-03T07:13:12.655Z,6.20
2018-11-03T07:15:41.821Z,6.20
2018-11-03T07:18:10.653Z,6.20
2018-11-03T07:20:39.999Z,6.30
2018-11-03T07:23:09.874Z,6.30
2018-11-03T07:25:40.659Z,6.30
2018-11-03T07:28:10.009Z,6.30
2018-11-03T07:30:39.785Z,6.30
2018-11-03T07:33:10.873Z,6.40
2018-11-03T07:35:42.330Z,6.40
2018-11-03T07:38:13.872Z,6.50
2018-11-03T07:40:43.221Z,6.50
2018-11-03T07:43:12.180Z,6.60
2018-11-03T07:45:45.074Z,6.60
2018-11-03T07:48:18.861Z,6.70
2018-11-03T07:50:50.155Z,6.70
2018-11-03T07:53:24.917Z,6.80
2018-11-03T07:55:55.718Z,6.80
2018-11-03T07:58:25.735Z,6.90
2018-11-03T08:00:55.200Z,6.90
2018-11-03T08:03:25.329Z,7.00
2018-11-03T08:05:56.127Z,6.90
2018-11-03T08:08:26.950Z,7.00
2018-11-03T08:11:05.796Z,7.10
2018-11-03T08:13:37.547Z,7.10
2018-11-03T08:16:11.048Z,7.20
2018-11-03T08:18:43.748Z,7.20
2018-11-03T08:21:14.732Z,7.30
2018-11-03T08:23:46.415Z,7.40
2018-11-03T08:26:15.235Z,7.40
2018-11-03T08:28:44.279Z,7.50
2018-11-03T08:31:13.786Z,7.50
2018-11-03T08:33:42.562Z,7.60
2018-11-03T08:36:11.367Z,7.60
2018-11-03T08:38:40.139Z,7.60
2018-11-03T08:41:10.058Z,7.70
2018-11-03T08:43:39.661Z,7.70
2018-11-03T08:46:09.787Z,7.80
2018-11-03T08:48:39.569Z,7.90
2018-11-03T08:51:08.515Z,7.90
2018-11-03T08:53:40.685Z,7.90
2018-11-03T08:56:12.138Z,7.90
2018-11-03T08:58:41.075Z,8.00
2018-11-03T09:01:09.881Z,8.10
2018-11-03T09:03:40.966Z,8.20
2018-11-03T09:06:11.517Z,8.20
2018-11-03T09:08:46.872Z,8.20
2018-11-03T09:11:17.454Z,8.30
2018-11-03T09:13:54.031Z,8.30
2018-11-03T09:16:29.748Z,8.30
2018-11-03T09:19:04.930Z,8.30
2018-11-03T09:21:35.530Z,8.30
2018-11-03T09:24:05.654Z,8.50
2018-11-03T09:26:35.276Z,8.50
2018-11-03T09:29:04.464Z,8.50
2018-11-03T09:31:41.474Z,8.50
2018-11-03T09:34:10.404Z,8.50
2018-11-03T09:36:41.059Z,8.60
2018-11-03T09:39:11.021Z,8.80
2018-11-03T09:41:39.893Z,8.90
2018-11-03T09:44:10.506Z,9.00
2018-11-03T09:46:40.196Z,9.00
2018-11-03T09:49:09.873Z,9.20
2018-11-03T09:51:41.671Z,9.20
2018-11-03T09:54:15.499Z,9.40
2018-11-03T09:56:46.821Z,9.40
2018-11-03T09:59:16.515Z,9.50
2018-11-03T10:01:45.532Z,9.50
2018-11-03T10:04:15.484Z,9.50
2018-11-03T10:06:45.893Z,9.70
2018-11-03T10:09:16.929Z,9.80
2018-11-03T10:11:45.676Z,10.10
2018-11-03T10:14:14.501Z,10.20
2018-11-03T10:16:43.609Z,10.30
2018-11-03T10:19:12.762Z,10.40
2018-11-03T10:21:41.963Z,10.60
2018-11-03T10:24:10.733Z,10.60
2018-11-03T10:26:39.507Z,10.60
2018-11-03T10:29:08.643Z,10.70
2018-11-03T10:31:39.584Z,11.10
2018-11-03T10:34:10.019Z,11.50
2018-11-03T10:36:42.103Z,11.80
2018-11-03T10:39:13.119Z,11.90
2018-11-03T10:41:43.076Z,12.00
2018-11-03T10:44:17.263Z,12.40
2018-11-03T10:46:46.448Z,12.60
2018-11-03T10:49:17.173Z,12.60
2018-11-03T10:51:51.878Z,12.50
2018-11-03T10:54:22.303Z,12.60
2018-11-03T10:56:51.353Z,12.50
2018-11-03T10:59:21.985Z,12.50
2018-11-03T11:01:57.822Z,12.50
2018-11-03T11:04:34.967Z,12.40
2018-11-03T11:07:10.730Z,12.50
2018-11-03T11:09:46.580Z,12.30
2018-11-03T11:12:23.575Z,12.20
2018-11-03T11:14:55.405Z,12.20
2018-11-03T11:17:28.504Z,12.30
2018-11-03T11:20:06.283Z,12.40
2018-11-03T11:22:40.332Z,12.50
2018-11-03T11:25:14.056Z,12.40
2018-11-03T11:27:46.283Z,12.60
2018-11-03T11:30:19.171Z,12.80
2018-11-03T11:32:51.275Z,12.90
2018-11-03T11:35:22.420Z,13.00
2018-11-03T11:37:55.417Z,13.20
2018-11-03T11:40:24.715Z,13.20
2018-11-03T11:42:53.887Z,13.50
2018-11-03T11:45:24.600Z,13.60
2018-11-03T11:47:53.903Z,13.30
2018-11-03T11:50:23.499Z,13.00
2018-11-03T11:52:53.267Z,12.90
2018-11-03T11:55:23.779Z,13.00
2018-11-03T11:57:55.013Z,13.10
2018-11-03T12:00:24.890Z,13.10
2018-11-03T12:02:55.209Z,13.20
2018-11-03T12:05:25.286Z,13.50
2018-11-03T12:07:55.437Z,13.40
2018-11-03T12:10:24.751Z,13.30
2018-11-03T12:12:53.935Z,13.00
2018-11-03T12:15:23.478Z,13.10
2018-11-03T12:17:53.118Z,13.00
2018-11-03T12:20:22.791Z,13.10
2018-11-03T12:22:51.564Z,13.00
2018-11-03T12:25:20.834Z,12.90
2018-11-03T12:27:51.721Z,13.00
2018-11-03T12:30:20.559Z,12.70
2018-11-03T12:32:50.014Z,12.70
2018-11-03T12:35:25.379Z,12.70
2018-11-03T12:38:00.411Z,12.70
2018-11-03T12:40:35.425Z,12.80
2018-11-03T12:43:11.198Z,12.70
2018-11-03T12:45:41.038Z,12.70
2018-11-03T12:48:17.329Z,12.60
2018-11-03T12:50:55.572Z,12.70
2018-11-03T12:53:27.548Z,12.50
2018-11-03T12:56:00.496Z,12.50
2018-11-03T12:58:31.752Z,12.40
2018-11-03T13:01:02.531Z,12.50
2018-11-03T13:03:35.751Z,12.50
2018-11-03T13:06:09.801Z,12.70
2018-11-03T13:08:43.362Z,12.70
2018-11-03T13:11:15.178Z,12.70
2018-11-03T13:13:45.218Z,12.60
2018-11-03T13:16:19.017Z,12.60
2018-11-03T13:18:51.188Z,12.60
2018-11-03T13:21:27.069Z,12.50
2018-11-03T13:23:58.446Z,12.40
2018-11-03T13:26:35.619Z,12.30
2018-11-03T13:29:06.967Z,12.10
2018-11-03T13:31:36.112Z,12.10
2018-11-03T13:34:33.090Z,12.20
2018-11-03T13:37:03.372Z,12.20
2018-11-03T13:39:38.126Z,12.10
2018-11-03T13:42:12.789Z,12.10
2018-11-03T13:44:43.954Z,11.90
2018-11-03T13:47:16.926Z,12.00
2018-11-03T13:49:47.300Z,12.00
2018-11-03T13:52:16.716Z,12.00
2018-11-03T13:54:58.317Z,12.00
2018-11-03T13:57:30.056Z,12.00
2018-11-03T14:00:01.151Z,11.90
2018-11-03T14:02:34.817Z,11.80
2018-11-03T14:05:08.315Z,11.80
2018-11-03T14:07:40.363Z,11.80
2018-11-03T14:10:21.247Z,11.80
2018-11-03T14:12:54.230Z,11.80
2018-11-03T14:15:23.990Z,11.60
2018-11-03T14:17:53.551Z,11.60
2018-11-03T14:20:24.984Z,11.60
2018-11-03T14:22:55.389Z,11.60
2018-11-03T14:25:25.103Z,11.50
2018-11-03T14:27:55.259Z,11.50
2018-11-03T14:30:25.268Z,11.40
2018-11-03T14:32:54.035Z,11.40
2018-11-03T14:35:25.369Z,11.40
2018-11-03T14:37:54.180Z,11.30
2018-11-03T14:40:23.092Z,11.30
2018-11-03T14:42:54.853Z,11.20
2018-11-03T14:45:25.469Z,11.20
2018-11-03T14:47:58.533Z,11.10
2018-11-03T14:50:31.968Z,11.00
2018-11-03T14:53:01.732Z,11.00
2018-11-03T14:55:31.797Z,10.90
2018-11-03T14:58:02.154Z,10.80
2018-11-03T15:00:35.373Z,10.70
2018-11-03T15:03:06.390Z,10.60
2018-11-03T15:05:38.204Z,10.50
2018-11-03T15:08:08.834Z,10.40
2018-11-03T15:10:39.685Z,10.30
2018-11-03T15:13:08.704Z,10.20
2018-11-03T15:15:40.260Z,10.10
2018-11-03T15:18:12.078Z,10.00
2018-11-03T15:20:44.071Z,9.90
2018-11-03T15:23:14.614Z,9.80
2018-11-03T15:25:43.528Z,9.70
2018-11-03T15:28:12.182Z,9.60
2018-11-03T15:30:42.466Z,9.50
2018-11-03T15:33:11.942Z,9.40
2018-11-03T15:35:41.330Z,9.20
2018-11-03T15:38:12.202Z,9.10
2018-11-03T15:40:43.226Z,9.00
2018-11-03T15:43:12.157Z,8.90
2018-11-03T15:45:41.133Z,8.80
2018-11-03T15:48:10.712Z,8.80
2018-11-03T15:50:44.887Z,8.70
2018-11-03T15:53:13.757Z,8.70
2018-11-03T15:55:43.550Z,8.70
2018-11-03T15:58:13.003Z,8.70
2018-11-03T16:00:41.996Z,8.60
2018-11-03T16:03:10.906Z,8.50
2018-11-03T16:05:39.904Z,8.50
2018-11-03T16:08:09.207Z,8.40
2018-11-03T16:10:38.792Z,8.30
2018-11-03T16:13:08.007Z,8.20
2018-11-03T16:15:36.827Z,8.20
2018-11-03T16:18:05.863Z,8.00
2018-11-03T16:20:34.652Z,8.00
2018-11-03T16:23:05.199Z,7.80
2018-11-03T16:25:34.546Z,7.80
2018-11-03T16:28:03.296Z,7.80
2018-11-03T16:30:31.997Z,7.80
2018-11-03T16:33:00.885Z,7.80
2018-11-03T16:35:29.581Z,7.70
2018-11-03T16:37:58.255Z,7.60
2018-11-03T16:40:27.599Z,7.50
2018-11-03T16:42:56.266Z,7.40
2018-11-03T16:45:26.535Z,7.40
2018-11-03T16:47:55.998Z,7.30
2018-11-03T16:50:24.845Z,7.20
2018-11-03T16:52:53.530Z,7.10
2018-11-03T16:55:22.340Z,7.00
2018-11-03T16:57:52.242Z,6.90
2018-11-03T17:00:24.158Z,6.80
2018-11-03T17:02:55.958Z,6.70
2018-11-03T17:05:27.079Z,6.70
2018-11-03T17:08:00.640Z,6.60
2018-11-03T17:10:32.974Z,6.50
2018-11-03T17:13:10.385Z,6.40
2018-11-03T17:15:45.274Z,6.40
2018-11-03T17:18:16.394Z,6.40
2018-11-03T17:20:46.901Z,6.40
2018-11-03T17:23:19.004Z,6.30
2018-11-03T17:25:52.593Z,6.40
2018-11-03T17:28:23.020Z,6.40
2018-11-03T17:30:52.936Z,6.20
2018-11-03T17:33:23.527Z,6.20
2018-11-03T17:35:57.901Z,6.20
2018-11-03T17:38:32.855Z,6.20
2018-11-03T17:41:07.276Z,6.10
2018-11-03T17:43:42.147Z,6.10
2018-11-03T17:46:13.259Z,6.00
2018-11-03T17:48:43.736Z,6.00
2018-11-03T17:51:19.069Z,5.90
2018-11-03T17:53:52.110Z,5.80
2018-11-03T17:56:22.890Z,5.80
2018-11-03T17:58:53.862Z,5.70
2018-11-03T18:01:25.559Z,5.70
2018-11-03T18:03:57.089Z,5.70
2018-11-03T18:06:28.048Z,5.70
2018-11-03T18:08:58.119Z,5.60
2018-11-03T18:11:28.005Z,5.40
2018-11-03T18:13:59.196Z,5.30
2018-11-03T18:16:29.077Z,5.30
2018-11-03T18:18:59.738Z,5.30
2018-11-03T18:21:31.124Z,5.20
2018-11-03T18:24:01.458Z,5.20
2018-11-03T18:26:31.953Z,5.20
2018-11-03T18:29:04.114Z,5.20
2018-11-03T18:31:38.721Z,5.10
2018-11-03T18:34:08.412Z,5.00
2018-11-03T18:36:42.296Z,4.90
2018-11-03T18:39:14.362Z,4.90
2018-11-03T18:41:44.657Z,4.90
2018-11-03T18:44:16.946Z,4.80
2018-11-03T18:46:50.990Z,4.80
2018-11-03T18:49:20.161Z,4.70
2018-11-03T18:51:50.879Z,4.70
2018-11-03T18:54:22.138Z,4.70
2018-11-03T18:56:52.287Z,4.60
2018-11-03T18:59:23.054Z,4.50
2018-11-03T19:01:56.487Z,4.50
2018-11-03T19:04:27.739Z,4.50
2018-11-03T19:07:05.098Z,4.50
2018-11-03T19:09:35.780Z,4.40
2018-11-03T19:12:05.836Z,4.30
2018-11-03T19:14:36.821Z,4.20
2018-11-03T19:17:09.988Z,4.20
2018-11-03T19:19:42.798Z,4.20
2018-11-03T19:22:13.350Z,4.20
2018-11-03T19:24:43.904Z,4.10
2018-11-03T19:27:15.243Z,4.10
2018-11-03T19:29:44.881Z,4.00
2018-11-03T19:32:16.049Z,4.00
2018-11-03T19:34:45.732Z,3.90
2018-11-03T19:37:15.818Z,3.80
2018-11-03T19:39:45.835Z,3.80
2018-11-03T19:42:16.518Z,3.80
2018-11-03T19:44:49.151Z,3.90
2018-11-03T19:47:19.022Z,3.80
2018-11-03T19:49:49.349Z,3.90
2018-11-03T19:52:19.714Z,3.90
2018-11-03T19:54:51.006Z,3.90
2018-11-03T19:57:23.177Z,4.10
2018-11-03T19:59:53.352Z,4.10
2018-11-03T20:02:23.820Z,4.10
2018-11-03T20:04:53.596Z,4.10
2018-11-03T20:07:23.302Z,4.20
2018-11-03T20:09:52.793Z,4.10
2018-11-03T20:12:22.895Z,4.10
2018-11-03T20:14:52.407Z,3.90
2018-11-03T20:17:22.577Z,4.00
2018-11-03T20:19:53.305Z,4.00
2018-11-03T20:22:23.323Z,3.90
2018-11-03T20:24:55.185Z,3.90
2018-11-03T20:27:25.643Z,4.00
2018-11-03T20:29:55.266Z,4.10
2018-11-03T20:32:24.584Z,4.00
2018-11-03T20:34:54.044Z,4.00
2018-11-03T20:37:23.257Z,4.00
2018-11-03T20:39:53.335Z,3.90
2018-11-03T20:42:23.447Z,4.00
2018-11-03T20:44:53.226Z,4.00
2018-11-03T20:47:22.388Z,4.00
2018-11-03T20:49:52.434Z,3.90
2018-11-03T20:52:23.178Z,3.80
2018-11-03T20:54:52.852Z,3.60
2018-11-03T20:57:22.822Z,3.70
2018-11-03T20:59:53.746Z,3.80
2018-11-03T21:02:23.097Z,3.80
2018-11-03T21:04:54.118Z,3.80
2018-11-03T21:07:24.311Z,3.80
2018-11-03T21:09:53.677Z,3.80
2018-11-03T21:12:22.793Z,3.80
2018-11-03T21:14:52.505Z,3.70
2018-11-03T21:17:21.841Z,3.70
2018-11-03T21:19:51.149Z,3.70
2018-11-03T21:22:20.538Z,3.70
2018-11-03T21:24:49.695Z,3.70
2018-11-03T21:27:19.068Z,3.70
2018-11-03T21:29:48.927Z,3.60
2018-11-03T21:32:19.324Z,3.50
2018-11-03T21:34:48.762Z,3.50
2018-11-03T21:37:17.923Z,3.60
2018-11-03T21:39:47.499Z,3.70
2018-11-03T21:42:16.852Z,3.70
2018-11-03T21:44:46.466Z,3.80
2018-11-03T21:47:16.674Z,3.80
2018-11-03T21:49:46.331Z,3.80
2018-11-03T21:52:16.701Z,3.70
2018-11-03T21:54:46.090Z,3.70
2018-11-03T21:57:17.350Z,3.70
2018-11-03T21:59:47.061Z,3.70
2018-11-03T22:02:16.820Z,3.70
2018-11-03T22:04:46.157Z,3.70
2018-11-03T22:07:16.198Z,3.50
2018-11-03T22:09:45.636Z,3.50
2018-11-03T22:12:15.774Z,3.50
2018-11-03T22:14:47.417Z,3.40
2018-11-03T22:17:17.783Z,3.30
2018-11-03T22:19:51.536Z,3.30
2018-11-03T22:22:22.110Z,3.20
2018-11-03T22:24:51.588Z,3.20
2018-11-03T22:27:23.029Z,3.30
2018-11-03T22:29:53.214Z,3.30
2018-11-03T22:32:22.754Z,3.40
2018-11-03T22:34:52.209Z,3.40
2018-11-03T22:37:21.585Z,3.40
2018-11-03T22:39:50.866Z,3.30
2018-11-03T22:42:20.125Z,3.40
2018-11-03T22:44:49.413Z,3.30
2018-11-03T22:47:18.813Z,3.30
2018-11-03T22:49:48.293Z,3.30
2018-11-03T22:52:18.536Z,3.30
2018-11-03T22:54:47.792Z,3.40
2018-11-03T22:57:17.114Z,3.40
2018-11-03T22:59:46.820Z,3.50
2018-11-03T23:02:16.544Z,3.50
2018-11-03T23:04:46.514Z,3.50
2018-11-03T23:07:15.722Z,3.50
2018-11-03T23:09:45.622Z,3.40
2018-11-03T23:12:16.314Z,3.40
2018-11-03T23:14:45.510Z,3.40
2018-11-03T23:17:16.008Z,3.40
2018-11-03T23:19:46.467Z,3.40
2018-11-03T23:22:16.546Z,3.30
2018-11-03T23:24:47.317Z,3.30
2018-11-03T23:27:16.559Z,3.30
2018-11-03T23:29:46.321Z,3.30
2018-11-03T23:32:15.364Z,3.30
2018-11-03T23:34:45.122Z,3.20
2018-11-03T23:37:14.524Z,3.20
2018-11-03T23:39:43.857Z,3.20
2018-11-03T23:42:13.745Z,3.40
2018-11-03T23:44:43.672Z,3.40
2018-11-03T23:47:13.874Z,3.30
2018-11-03T23:49:46.799Z,3.30
2018-11-03T23:52:18.711Z,3.30
2018-11-03T23:54:47.566Z,3.40
2018-11-03T23:57:16.471Z,3.50
2018-11-03T23:59:45.908Z,3.50
